sensor_id;sensor_type;location;lat;lon;timestamp;P1;durP1;ratioP1;P2;durP2;ratioP2
3293;SDS011;1659;51.470;6.770;2023-04-02T00:01:04;27.40;;;13.80;;
3293;SDS011;1659;51.470;6.770;2023-04-02T00:04:02;18.27;;;7.60;;
3293;SDS011;1659;51.470;6.770;2023-04-02T00:06:55;20.40;;;11.57;;
3293;SDS011;1659;51.470;6.770;2023-04-02T00:09:54;16.20;;;9.50;;
3293;SDS011;1659;51.470;6.770;2023-04-02T00:12:21;19.70;;;10.77;;
3293;SDS011;1659;51.470;6.770;2023-04-02T00:14:49;18.90;;;10.17;;
3293;SDS011;1659;51.470;6.770;2023-04-02T00:17:19;12.33;;;7.70;;
3293;SDS011;1659;51.470;6.770;2023-04-02T00:19:49;7.13;;;6.43;;
3293;SDS011;1659;51.470;6.770;2023-04-02T00:22:20;7.57;;;6.03;;
3293;SDS011;1659;51.470;6.770;2023-04-02T00:24:51;7.90;;;6.17;;
3293;SDS011;1659;51.470;6.770;2023-04-02T00:27:20;9.90;;;7.03;;
3293;SDS011;1659;51.470;6.770;2023-04-02T00:29:47;12.20;;;8.37;;
3293;SDS011;1659;51.470;6.770;2023-04-02T00:32:19;11.93;;;8.20;;
3293;SDS011;1659;51.470;6.770;2023-04-02T00:34:49;11.93;;;8.43;;
3293;SDS011;1659;51.470;6.770;2023-04-02T00:37:17;9.17;;;8.10;;
3293;SDS011;1659;51.470;6.770;2023-04-02T00:39:49;10.67;;;8.20;;
3293;SDS011;1659;51.470;6.770;2023-04-02T00:42:18;9.23;;;6.70;;
3293;SDS011;1659;51.470;6.770;2023-04-02T00:44:46;10.60;;;7.93;;
3293;SDS011;1659;51.470;6.770;2023-04-02T00:47:16;9.47;;;7.73;;
3293;SDS011;1659;51.470;6.770;2023-04-02T00:49:45;11.07;;;8.13;;
3293;SDS011;1659;51.470;6.770;2023-04-02T00:52:15;9.70;;;7.83;;
3293;SDS011;1659;51.470;6.770;2023-04-02T00:54:46;12.73;;;9.43;;
3293;SDS011;1659;51.470;6.770;2023-04-02T00:57:16;11.77;;;9.40;;
3293;SDS011;1659;51.470;6.770;2023-04-02T00:59:51;11.70;;;8.90;;
3293;SDS011;1659;51.470;6.770;2023-04-02T01:02:23;15.63;;;11.00;;
3293;SDS011;1659;51.470;6.770;2023-04-02T01:04:55;13.83;;;9.87;;
3293;SDS011;1659;51.470;6.770;2023-04-02T01:07:27;11.43;;;8.70;;
3293;SDS011;1659;51.470;6.770;2023-04-02T01:10:13;12.17;;;9.10;;
3293;SDS011;1659;51.470;6.770;2023-04-02T01:12:50;11.27;;;8.47;;
3293;SDS011;1659;51.470;6.770;2023-04-02T01:15:26;13.60;;;9.87;;
3293;SDS011;1659;51.470;6.770;2023-04-02T01:18:07;11.50;;;8.63;;
3293;SDS011;1659;51.470;6.770;2023-04-02T01:20:50;13.80;;;9.53;;
3293;SDS011;1659;51.470;6.770;2023-04-02T01:23:43;13.13;;;9.80;;
3293;SDS011;1659;51.470;6.770;2023-04-02T01:26:22;12.67;;;9.77;;
3293;SDS011;1659;51.470;6.770;2023-04-02T01:28:58;12.40;;;8.30;;
3293;SDS011;1659;51.470;6.770;2023-04-02T01:31:29;12.50;;;9.23;;
3293;SDS011;1659;51.470;6.770;2023-04-02T01:33:58;12.37;;;8.53;;
3293;SDS011;1659;51.470;6.770;2023-04-02T01:36:26;10.33;;;8.43;;
3293;SDS011;1659;51.470;6.770;2023-04-02T01:39:02;11.90;;;9.30;;
3293;SDS011;1659;51.470;6.770;2023-04-02T01:41:38;12.00;;;9.57;;
3293;SDS011;1659;51.470;6.770;2023-04-02T01:44:13;13.77;;;9.77;;
3293;SDS011;1659;51.470;6.770;2023-04-02T01:46:46;11.63;;;9.40;;
3293;SDS011;1659;51.470;6.770;2023-04-02T01:49:14;15.50;;;9.90;;
3293;SDS011;1659;51.470;6.770;2023-04-02T01:51:45;17.33;;;9.60;;
3293;SDS011;1659;51.470;6.770;2023-04-02T01:54:17;12.20;;;9.73;;
3293;SDS011;1659;51.470;6.770;2023-04-02T01:56:45;14.00;;;10.20;;
3293;SDS011;1659;51.470;6.770;2023-04-02T01:59:14;11.77;;;8.80;;
3293;SDS011;1659;51.470;6.770;2023-04-02T02:01:44;10.50;;;8.60;;
3293;SDS011;1659;51.470;6.770;2023-04-02T02:04:15;10.80;;;7.80;;
3293;SDS011;1659;51.470;6.770;2023-04-02T02:06:43;8.53;;;7.40;;
3293;SDS011;1659;51.470;6.770;2023-04-02T02:09:11;9.00;;;6.40;;
3293;SDS011;1659;51.470;6.770;2023-04-02T02:11:42;8.37;;;7.47;;
3293;SDS011;1659;51.470;6.770;2023-04-02T02:14:12;7.93;;;7.13;;
3293;SDS011;1659;51.470;6.770;2023-04-02T02:16:42;10.10;;;7.53;;
3293;SDS011;1659;51.470;6.770;2023-04-02T02:19:14;12.03;;;7.90;;
3293;SDS011;1659;51.470;6.770;2023-04-02T02:21:47;12.63;;;8.07;;
3293;SDS011;1659;51.470;6.770;2023-04-02T02:24:18;10.83;;;7.40;;
3293;SDS011;1659;51.470;6.770;2023-04-02T02:26:47;10.00;;;8.43;;
3293;SDS011;1659;51.470;6.770;2023-04-02T02:29:29;11.50;;;7.93;;
3293;SDS011;1659;51.470;6.770;2023-04-02T02:32:00;9.77;;;7.40;;
3293;SDS011;1659;51.470;6.770;2023-04-02T02:34:30;12.53;;;8.23;;
3293;SDS011;1659;51.470;6.770;2023-04-02T02:37:01;10.70;;;7.90;;
3293;SDS011;1659;51.470;6.770;2023-04-02T02:39:32;17.10;;;9.07;;
3293;SDS011;1659;51.470;6.770;2023-04-02T02:42:03;11.70;;;9.10;;
3293;SDS011;1659;51.470;6.770;2023-04-02T02:44:40;8.53;;;7.70;;
3293;SDS011;1659;51.470;6.770;2023-04-02T02:47:10;10.93;;;8.30;;
3293;SDS011;1659;51.470;6.770;2023-04-02T02:49:41;8.20;;;6.80;;
3293;SDS011;1659;51.470;6.770;2023-04-02T02:52:12;10.20;;;8.30;;
3293;SDS011;1659;51.470;6.770;2023-04-02T02:54:42;10.17;;;8.60;;
3293;SDS011;1659;51.470;6.770;2023-04-02T02:57:13;9.80;;;7.80;;
3293;SDS011;1659;51.470;6.770;2023-04-02T02:59:44;11.10;;;8.10;;
3293;SDS011;1659;51.470;6.770;2023-04-02T03:02:11;11.57;;;8.00;;
3293;SDS011;1659;51.470;6.770;2023-04-02T03:04:40;10.80;;;7.57;;
3293;SDS011;1659;51.470;6.770;2023-04-02T03:07:11;14.63;;;7.83;;
3293;SDS011;1659;51.470;6.770;2023-04-02T03:09:40;12.80;;;8.50;;
3293;SDS011;1659;51.470;6.770;2023-04-02T03:12:20;13.47;;;9.90;;
3293;SDS011;1659;51.470;6.770;2023-04-02T03:15:01;15.53;;;8.93;;
3293;SDS011;1659;51.470;6.770;2023-04-02T03:17:33;13.50;;;9.97;;
3293;SDS011;1659;51.470;6.770;2023-04-02T03:20:05;11.70;;;8.17;;
3293;SDS011;1659;51.470;6.770;2023-04-02T03:22:41;9.90;;;7.70;;
3293;SDS011;1659;51.470;6.770;2023-04-02T03:25:16;10.27;;;7.23;;
3293;SDS011;1659;51.470;6.770;2023-04-02T03:27:52;8.83;;;7.07;;
3293;SDS011;1659;51.470;6.770;2023-04-02T03:30:28;11.03;;;7.67;;
3293;SDS011;1659;51.470;6.770;2023-04-02T03:33:00;10.03;;;8.10;;
3293;SDS011;1659;51.470;6.770;2023-04-02T03:35:31;15.80;;;8.17;;
3293;SDS011;1659;51.470;6.770;2023-04-02T03:38:03;13.43;;;9.33;;
3293;SDS011;1659;51.470;6.770;2023-04-02T03:40:37;10.60;;;8.13;;
3293;SDS011;1659;51.470;6.770;2023-04-02T03:43:11;11.63;;;8.70;;
3293;SDS011;1659;51.470;6.770;2023-04-02T03:45:47;11.10;;;8.40;;
3293;SDS011;1659;51.470;6.770;2023-04-02T03:48:17;9.70;;;7.90;;
3293;SDS011;1659;51.470;6.770;2023-04-02T03:50:49;14.40;;;10.13;;
3293;SDS011;1659;51.470;6.770;2023-04-02T03:53:21;11.03;;;8.47;;
3293;SDS011;1659;51.470;6.770;2023-04-02T03:55:49;13.33;;;8.70;;
3293;SDS011;1659;51.470;6.770;2023-04-02T03:58:17;15.30;;;8.80;;
3293;SDS011;1659;51.470;6.770;2023-04-02T04:00:50;12.53;;;9.00;;
3293;SDS011;1659;51.470;6.770;2023-04-02T04:03:20;14.13;;;9.97;;
3293;SDS011;1659;51.470;6.770;2023-04-02T04:05:51;14.60;;;10.20;;
3293;SDS011;1659;51.470;6.770;2023-04-02T04:08:22;10.77;;;7.77;;
3293;SDS011;1659;51.470;6.770;2023-04-02T04:10:52;14.23;;;9.40;;
3293;SDS011;1659;51.470;6.770;2023-04-02T04:13:24;13.10;;;9.00;;
3293;SDS011;1659;51.470;6.770;2023-04-02T04:16:01;11.40;;;8.23;;
3293;SDS011;1659;51.470;6.770;2023-04-02T04:18:32;12.33;;;9.07;;
3293;SDS011;1659;51.470;6.770;2023-04-02T04:21:11;13.93;;;9.90;;
3293;SDS011;1659;51.470;6.770;2023-04-02T04:23:45;17.43;;;9.97;;
3293;SDS011;1659;51.470;6.770;2023-04-02T04:26:16;16.23;;;10.67;;
3293;SDS011;1659;51.470;6.770;2023-04-02T04:28:51;16.00;;;11.30;;
3293;SDS011;1659;51.470;6.770;2023-04-02T04:31:27;18.30;;;11.53;;
3293;SDS011;1659;51.470;6.770;2023-04-02T04:34:04;14.80;;;9.80;;
3293;SDS011;1659;51.470;6.770;2023-04-02T04:36:39;12.73;;;9.47;;
3293;SDS011;1659;51.470;6.770;2023-04-02T04:39:19;16.90;;;10.10;;
3293;SDS011;1659;51.470;6.770;2023-04-02T04:41:49;15.57;;;10.03;;
3293;SDS011;1659;51.470;6.770;2023-04-02T04:44:20;17.10;;;10.67;;
3293;SDS011;1659;51.470;6.770;2023-04-02T04:46:53;19.70;;;11.83;;
3293;SDS011;1659;51.470;6.770;2023-04-02T04:49:25;17.67;;;12.10;;
3293;SDS011;1659;51.470;6.770;2023-04-02T04:51:57;20.87;;;12.80;;
3293;SDS011;1659;51.470;6.770;2023-04-02T04:54:26;18.20;;;12.70;;
3293;SDS011;1659;51.470;6.770;2023-04-02T04:56:54;19.63;;;12.77;;
3293;SDS011;1659;51.470;6.770;2023-04-02T04:59:25;23.90;;;13.97;;
3293;SDS011;1659;51.470;6.770;2023-04-02T05:01:56;22.57;;;14.00;;
3293;SDS011;1659;51.470;6.770;2023-04-02T05:04:29;19.20;;;12.60;;
3293;SDS011;1659;51.470;6.770;2023-04-02T05:06:59;19.30;;;11.90;;
3293;SDS011;1659;51.470;6.770;2023-04-02T05:09:31;21.93;;;12.70;;
3293;SDS011;1659;51.470;6.770;2023-04-02T05:12:04;16.87;;;11.90;;
3293;SDS011;1659;51.470;6.770;2023-04-02T05:14:39;17.33;;;11.40;;
3293;SDS011;1659;51.470;6.770;2023-04-02T05:17:12;19.67;;;11.03;;
3293;SDS011;1659;51.470;6.770;2023-04-02T05:19:44;17.40;;;11.67;;
3293;SDS011;1659;51.470;6.770;2023-04-02T05:22:19;19.07;;;11.93;;
3293;SDS011;1659;51.470;6.770;2023-04-02T05:24:55;20.57;;;11.90;;
3293;SDS011;1659;51.470;6.770;2023-04-02T05:27:31;19.30;;;11.87;;
3293;SDS011;1659;51.470;6.770;2023-04-02T05:30:04;19.53;;;10.40;;
3293;SDS011;1659;51.470;6.770;2023-04-02T05:32:39;20.80;;;12.13;;
3293;SDS011;1659;51.470;6.770;2023-04-02T05:35:12;16.73;;;11.70;;
3293;SDS011;1659;51.470;6.770;2023-04-02T05:37:41;19.97;;;13.27;;
3293;SDS011;1659;51.470;6.770;2023-04-02T05:40:10;20.70;;;12.00;;
3293;SDS011;1659;51.470;6.770;2023-04-02T05:42:41;19.63;;;11.17;;
3293;SDS011;1659;51.470;6.770;2023-04-02T05:45:18;17.03;;;11.07;;
3293;SDS011;1659;51.470;6.770;2023-04-02T05:47:52;28.73;;;11.67;;
3293;SDS011;1659;51.470;6.770;2023-04-02T05:50:26;18.40;;;12.23;;
3293;SDS011;1659;51.470;6.770;2023-04-02T05:52:56;20.27;;;12.63;;
3293;SDS011;1659;51.470;6.770;2023-04-02T05:55:33;17.90;;;11.73;;
3293;SDS011;1659;51.470;6.770;2023-04-02T05:58:05;17.80;;;11.93;;
3293;SDS011;1659;51.470;6.770;2023-04-02T06:00:42;18.70;;;12.40;;
3293;SDS011;1659;51.470;6.770;2023-04-02T06:03:23;23.43;;;13.17;;
3293;SDS011;1659;51.470;6.770;2023-04-02T06:05:55;19.00;;;11.80;;
3293;SDS011;1659;51.470;6.770;2023-04-02T06:08:26;22.17;;;12.10;;
3293;SDS011;1659;51.470;6.770;2023-04-02T06:11:00;19.40;;;11.60;;
3293;SDS011;1659;51.470;6.770;2023-04-02T06:13:32;21.80;;;13.10;;
3293;SDS011;1659;51.470;6.770;2023-04-02T06:15:59;19.67;;;12.50;;
3293;SDS011;1659;51.470;6.770;2023-04-02T06:18:28;18.30;;;12.50;;
3293;SDS011;1659;51.470;6.770;2023-04-02T06:20:57;17.80;;;12.13;;
3293;SDS011;1659;51.470;6.770;2023-04-02T06:23:25;18.30;;;12.87;;
3293;SDS011;1659;51.470;6.770;2023-04-02T06:25:57;16.27;;;12.10;;
3293;SDS011;1659;51.470;6.770;2023-04-02T06:28:29;17.33;;;11.80;;
3293;SDS011;1659;51.470;6.770;2023-04-02T06:31:02;16.27;;;12.10;;
3293;SDS011;1659;51.470;6.770;2023-04-02T06:33:34;18.33;;;12.37;;
3293;SDS011;1659;51.470;6.770;2023-04-02T06:36:01;18.37;;;12.13;;
3293;SDS011;1659;51.470;6.770;2023-04-02T06:38:30;20.63;;;10.93;;
3293;SDS011;1659;51.470;6.770;2023-04-02T06:40:59;17.30;;;10.87;;
3293;SDS011;1659;51.470;6.770;2023-04-02T06:43:31;15.67;;;10.40;;
3293;SDS011;1659;51.470;6.770;2023-04-02T06:46:01;19.77;;;12.03;;
3293;SDS011;1659;51.470;6.770;2023-04-02T06:48:31;16.03;;;10.30;;
3293;SDS011;1659;51.470;6.770;2023-04-02T06:51:02;15.03;;;9.83;;
3293;SDS011;1659;51.470;6.770;2023-04-02T06:53:33;12.20;;;10.20;;
3293;SDS011;1659;51.470;6.770;2023-04-02T06:56:02;15.73;;;10.27;;
3293;SDS011;1659;51.470;6.770;2023-04-02T06:58:31;14.27;;;9.20;;
3293;SDS011;1659;51.470;6.770;2023-04-02T07:00:58;12.73;;;9.87;;
3293;SDS011;1659;51.470;6.770;2023-04-02T07:03:25;12.67;;;9.07;;
3293;SDS011;1659;51.470;6.770;2023-04-02T07:05:55;16.80;;;9.57;;
3293;SDS011;1659;51.470;6.770;2023-04-02T07:08:23;10.30;;;8.23;;
3293;SDS011;1659;51.470;6.770;2023-04-02T07:10:50;12.80;;;9.50;;
3293;SDS011;1659;51.470;6.770;2023-04-02T07:13:17;15.60;;;10.00;;
3293;SDS011;1659;51.470;6.770;2023-04-02T07:15:46;12.20;;;8.90;;
3293;SDS011;1659;51.470;6.770;2023-04-02T07:20:48;12.63;;;9.00;;
3293;SDS011;1659;51.470;6.770;2023-04-02T07:23:16;14.10;;;8.90;;
3293;SDS011;1659;51.470;6.770;2023-04-02T07:25:45;10.90;;;7.93;;
3293;SDS011;1659;51.470;6.770;2023-04-02T07:28:11;14.20;;;8.77;;
3293;SDS011;1659;51.470;6.770;2023-04-02T07:30:39;17.23;;;8.93;;
3293;SDS011;1659;51.470;6.770;2023-04-02T07:33:05;9.73;;;7.80;;
3293;SDS011;1659;51.470;6.770;2023-04-02T07:35:32;13.43;;;8.53;;
3293;SDS011;1659;51.470;6.770;2023-04-02T07:37:59;11.73;;;8.80;;
3293;SDS011;1659;51.470;6.770;2023-04-02T07:40:27;21.03;;;10.40;;
3293;SDS011;1659;51.470;6.770;2023-04-02T07:43:01;18.23;;;8.47;;
3293;SDS011;1659;51.470;6.770;2023-04-02T07:45:27;14.60;;;7.83;;
3293;SDS011;1659;51.470;6.770;2023-04-02T07:47:54;11.53;;;8.10;;
3293;SDS011;1659;51.470;6.770;2023-04-02T07:50:21;11.50;;;8.57;;
3293;SDS011;1659;51.470;6.770;2023-04-02T07:53:00;9.10;;;8.20;;
3293;SDS011;1659;51.470;6.770;2023-04-02T08:02:45;9.70;;;7.60;;
3293;SDS011;1659;51.470;6.770;2023-04-02T08:08:36;13.80;;;8.47;;
3293;SDS011;1659;51.470;6.770;2023-04-02T08:11:36;9.07;;;6.70;;
3293;SDS011;1659;51.470;6.770;2023-04-02T08:14:40;9.40;;;7.63;;
3293;SDS011;1659;51.470;6.770;2023-04-02T08:17:06;8.87;;;7.20;;
3293;SDS011;1659;51.470;6.770;2023-04-02T08:19:34;8.47;;;6.00;;
3293;SDS011;1659;51.470;6.770;2023-04-02T08:22:01;14.73;;;7.30;;
3293;SDS011;1659;51.470;6.770;2023-04-02T08:24:28;11.77;;;6.57;;
3293;SDS011;1659;51.470;6.770;2023-04-02T08:26:54;7.33;;;6.60;;
3293;SDS011;1659;51.470;6.770;2023-04-02T08:29:21;9.17;;;5.87;;
3293;SDS011;1659;51.470;6.770;2023-04-02T08:31:48;11.53;;;6.97;;
3293;SDS011;1659;51.470;6.770;2023-04-02T08:34:15;9.80;;;7.57;;
3293;SDS011;1659;51.470;6.770;2023-04-02T08:36:43;10.20;;;7.97;;
3293;SDS011;1659;51.470;6.770;2023-04-02T08:39:10;9.27;;;6.90;;
3293;SDS011;1659;51.470;6.770;2023-04-02T08:41:38;14.27;;;6.47;;
3293;SDS011;1659;51.470;6.770;2023-04-02T08:44:12;9.07;;;6.40;;
3293;SDS011;1659;51.470;6.770;2023-04-02T08:46:48;9.90;;;6.30;;
3293;SDS011;1659;51.470;6.770;2023-04-02T08:49:18;9.50;;;7.17;;
3293;SDS011;1659;51.470;6.770;2023-04-02T08:51:55;6.57;;;5.80;;
3293;SDS011;1659;51.470;6.770;2023-04-02T08:54:23;6.13;;;5.50;;
3293;SDS011;1659;51.470;6.770;2023-04-02T08:56:53;8.90;;;5.60;;
3293;SDS011;1659;51.470;6.770;2023-04-02T09:02:53;11.13;;;7.00;;
3293;SDS011;1659;51.470;6.770;2023-04-02T09:08:23;7.57;;;5.80;;
3293;SDS011;1659;51.470;6.770;2023-04-02T09:10:52;9.17;;;5.73;;
3293;SDS011;1659;51.470;6.770;2023-04-02T09:13:22;5.37;;;4.87;;
3293;SDS011;1659;51.470;6.770;2023-04-02T09:15:51;11.47;;;5.47;;
3293;SDS011;1659;51.470;6.770;2023-04-02T09:18:26;8.50;;;5.70;;
3293;SDS011;1659;51.470;6.770;2023-04-02T09:20:55;11.67;;;5.43;;
3293;SDS011;1659;51.470;6.770;2023-04-02T09:23:23;6.00;;;4.53;;
3293;SDS011;1659;51.470;6.770;2023-04-02T09:25:52;4.93;;;4.50;;
3293;SDS011;1659;51.470;6.770;2023-04-02T09:28:19;5.60;;;4.93;;
3293;SDS011;1659;51.470;6.770;2023-04-02T09:31:00;6.47;;;4.20;;
3293;SDS011;1659;51.470;6.770;2023-04-02T09:33:41;5.90;;;4.70;;
3293;SDS011;1659;51.470;6.770;2023-04-02T09:36:25;11.40;;;6.23;;
3293;SDS011;1659;51.470;6.770;2023-04-02T09:39:00;6.83;;;5.17;;
3293;SDS011;1659;51.470;6.770;2023-04-02T09:41:31;12.80;;;5.43;;
3293;SDS011;1659;51.470;6.770;2023-04-02T09:44:12;6.03;;;5.30;;
3293;SDS011;1659;51.470;6.770;2023-04-02T09:46:50;10.70;;;5.10;;
3293;SDS011;1659;51.470;6.770;2023-04-02T09:49:18;8.60;;;5.03;;
3293;SDS011;1659;51.470;6.770;2023-04-02T09:54:43;6.17;;;4.53;;
3293;SDS011;1659;51.470;6.770;2023-04-02T09:57:16;6.70;;;5.70;;
3293;SDS011;1659;51.470;6.770;2023-04-02T10:02:41;8.03;;;5.10;;
3293;SDS011;1659;51.470;6.770;2023-04-02T10:05:14;10.53;;;4.87;;
3293;SDS011;1659;51.470;6.770;2023-04-02T10:07:45;5.90;;;5.10;;
3293;SDS011;1659;51.470;6.770;2023-04-02T10:10:21;5.73;;;4.80;;
3293;SDS011;1659;51.470;6.770;2023-04-02T10:12:54;8.10;;;4.70;;
3293;SDS011;1659;51.470;6.770;2023-04-02T10:15:26;7.93;;;5.20;;
3293;SDS011;1659;51.470;6.770;2023-04-02T10:18:00;7.20;;;5.90;;
3293;SDS011;1659;51.470;6.770;2023-04-02T10:20:32;6.83;;;4.80;;
3293;SDS011;1659;51.470;6.770;2023-04-02T10:23:03;10.03;;;4.97;;
3293;SDS011;1659;51.470;6.770;2023-04-02T10:25:33;6.80;;;5.27;;
3293;SDS011;1659;51.470;6.770;2023-04-02T10:28:09;9.00;;;5.83;;
3293;SDS011;1659;51.470;6.770;2023-04-02T10:30:52;5.37;;;4.87;;
3293;SDS011;1659;51.470;6.770;2023-04-02T10:33:25;5.17;;;4.77;;
3293;SDS011;1659;51.470;6.770;2023-04-02T10:35:57;5.73;;;5.23;;
3293;SDS011;1659;51.470;6.770;2023-04-02T10:38:35;6.97;;;5.43;;
3293;SDS011;1659;51.470;6.770;2023-04-02T10:41:10;6.40;;;4.80;;
3293;SDS011;1659;51.470;6.770;2023-04-02T10:46:33;15.17;;;6.07;;
3293;SDS011;1659;51.470;6.770;2023-04-02T10:49:09;5.60;;;5.10;;
3293;SDS011;1659;51.470;6.770;2023-04-02T10:51:53;10.40;;;7.50;;
3293;SDS011;1659;51.470;6.770;2023-04-02T10:54:32;10.83;;;6.00;;
3293;SDS011;1659;51.470;6.770;2023-04-02T10:57:08;6.50;;;5.80;;
3293;SDS011;1659;51.470;6.770;2023-04-02T10:59:44;8.37;;;5.33;;
3293;SDS011;1659;51.470;6.770;2023-04-02T11:02:23;5.40;;;4.90;;
3293;SDS011;1659;51.470;6.770;2023-04-02T11:04:55;8.83;;;5.13;;
3293;SDS011;1659;51.470;6.770;2023-04-02T11:07:26;6.40;;;5.37;;
3293;SDS011;1659;51.470;6.770;2023-04-02T11:09:57;7.87;;;5.40;;
3293;SDS011;1659;51.470;6.770;2023-04-02T11:12:37;5.87;;;4.63;;
3293;SDS011;1659;51.470;6.770;2023-04-02T11:15:12;4.77;;;4.37;;
3293;SDS011;1659;51.470;6.770;2023-04-02T11:17:41;5.67;;;4.77;;
3293;SDS011;1659;51.470;6.770;2023-04-02T11:23:25;5.03;;;4.60;;
3293;SDS011;1659;51.470;6.770;2023-04-02T11:29:01;5.77;;;5.17;;
3293;SDS011;1659;51.470;6.770;2023-04-02T11:31:32;9.87;;;4.77;;
3293;SDS011;1659;51.470;6.770;2023-04-02T11:33:58;9.30;;;5.40;;
3293;SDS011;1659;51.470;6.770;2023-04-02T11:42:29;11.43;;;4.87;;
3293;SDS011;1659;51.470;6.770;2023-04-02T11:48:28;6.00;;;5.27;;
3293;SDS011;1659;51.470;6.770;2023-04-02T11:50:55;5.07;;;4.40;;
3293;SDS011;1659;51.470;6.770;2023-04-02T11:53:25;6.53;;;5.63;;
3293;SDS011;1659;51.470;6.770;2023-04-02T11:56:05;5.87;;;5.37;;
3293;SDS011;1659;51.470;6.770;2023-04-02T11:58:37;6.00;;;5.40;;
3293;SDS011;1659;51.470;6.770;2023-04-02T12:04:37;39.90;;;14.53;;
3293;SDS011;1659;51.470;6.770;2023-04-02T12:07:26;6.63;;;5.67;;
3293;SDS011;1659;51.470;6.770;2023-04-02T12:10:30;4.97;;;4.40;;
3293;SDS011;1659;51.470;6.770;2023-04-02T12:12:58;6.73;;;4.50;;
3293;SDS011;1659;51.470;6.770;2023-04-02T12:15:32;5.70;;;4.17;;
3293;SDS011;1659;51.470;6.770;2023-04-02T12:18:11;5.17;;;4.73;;
3293;SDS011;1659;51.470;6.770;2023-04-02T12:20:41;5.20;;;4.80;;
3293;SDS011;1659;51.470;6.770;2023-04-02T12:23:15;4.43;;;4.00;;
3293;SDS011;1659;51.470;6.770;2023-04-02T12:25:45;9.13;;;4.90;;
3293;SDS011;1659;51.470;6.770;2023-04-02T12:28:20;8.43;;;4.10;;
3293;SDS011;1659;51.470;6.770;2023-04-02T12:30:47;4.73;;;3.90;;
3293;SDS011;1659;51.470;6.770;2023-04-02T12:33:16;6.87;;;4.90;;
3293;SDS011;1659;51.470;6.770;2023-04-02T12:35:55;4.57;;;4.13;;
3293;SDS011;1659;51.470;6.770;2023-04-02T12:38:23;4.60;;;4.00;;
3293;SDS011;1659;51.470;6.770;2023-04-02T12:40:51;5.90;;;4.27;;
3293;SDS011;1659;51.470;6.770;2023-04-02T12:43:22;4.53;;;3.87;;
3293;SDS011;1659;51.470;6.770;2023-04-02T12:45:50;5.03;;;4.63;;
3293;SDS011;1659;51.470;6.770;2023-04-02T12:48:18;5.33;;;4.83;;
3293;SDS011;1659;51.470;6.770;2023-04-02T12:50:45;4.90;;;4.50;;
3293;SDS011;1659;51.470;6.770;2023-04-02T12:53:18;4.80;;;3.77;;
3293;SDS011;1659;51.470;6.770;2023-04-02T12:55:46;4.03;;;3.73;;
3293;SDS011;1659;51.470;6.770;2023-04-02T12:58:17;5.53;;;3.80;;
3293;SDS011;1659;51.470;6.770;2023-04-02T13:00:51;5.83;;;3.73;;
3293;SDS011;1659;51.470;6.770;2023-04-02T13:03:19;5.83;;;4.70;;
3293;SDS011;1659;51.470;6.770;2023-04-02T13:05:47;4.23;;;3.83;;
3293;SDS011;1659;51.470;6.770;2023-04-02T13:08:21;5.00;;;4.27;;
3293;SDS011;1659;51.470;6.770;2023-04-02T13:10:54;4.90;;;3.70;;
3293;SDS011;1659;51.470;6.770;2023-04-02T13:13:24;3.83;;;3.53;;
3293;SDS011;1659;51.470;6.770;2023-04-02T13:16:04;6.90;;;4.23;;
3293;SDS011;1659;51.470;6.770;2023-04-02T13:18:47;39.37;;;4.03;;
3293;SDS011;1659;51.470;6.770;2023-04-02T13:21:21;6.47;;;3.50;;
3293;SDS011;1659;51.470;6.770;2023-04-02T13:23:52;4.37;;;3.90;;
3293;SDS011;1659;51.470;6.770;2023-04-02T13:26:19;3.90;;;3.60;;
3293;SDS011;1659;51.470;6.770;2023-04-02T13:28:55;4.93;;;4.43;;
3293;SDS011;1659;51.470;6.770;2023-04-02T13:31:22;5.73;;;4.00;;
3293;SDS011;1659;51.470;6.770;2023-04-02T13:33:49;5.80;;;5.00;;
3293;SDS011;1659;51.470;6.770;2023-04-02T13:36:15;5.30;;;4.80;;
3293;SDS011;1659;51.470;6.770;2023-04-02T13:38:42;5.00;;;4.13;;
3293;SDS011;1659;51.470;6.770;2023-04-02T13:41:11;4.70;;;4.30;;
3293;SDS011;1659;51.470;6.770;2023-04-02T13:43:46;5.40;;;4.40;;
3293;SDS011;1659;51.470;6.770;2023-04-02T13:46:15;5.37;;;4.87;;
3293;SDS011;1659;51.470;6.770;2023-04-02T13:48:44;5.07;;;4.57;;
3293;SDS011;1659;51.470;6.770;2023-04-02T13:51:12;4.40;;;4.00;;
3293;SDS011;1659;51.470;6.770;2023-04-02T13:53:41;7.63;;;4.30;;
3293;SDS011;1659;51.470;6.770;2023-04-02T13:56:08;6.23;;;4.67;;
3293;SDS011;1659;51.470;6.770;2023-04-02T13:58:35;4.57;;;4.17;;
3293;SDS011;1659;51.470;6.770;2023-04-02T14:01:02;6.40;;;4.50;;
3293;SDS011;1659;51.470;6.770;2023-04-02T14:03:29;8.40;;;4.23;;
3293;SDS011;1659;51.470;6.770;2023-04-02T14:05:56;15.73;;;7.23;;
3293;SDS011;1659;51.470;6.770;2023-04-02T14:08:31;6.80;;;4.60;;
3293;SDS011;1659;51.470;6.770;2023-04-02T14:11:11;6.03;;;4.23;;
3293;SDS011;1659;51.470;6.770;2023-04-02T14:13:56;4.00;;;3.80;;
3293;SDS011;1659;51.470;6.770;2023-04-02T14:16:46;6.30;;;4.73;;
3293;SDS011;1659;51.470;6.770;2023-04-02T14:22:13;7.93;;;4.47;;
3293;SDS011;1659;51.470;6.770;2023-04-02T14:24:51;5.33;;;3.70;;
3293;SDS011;1659;51.470;6.770;2023-04-02T14:27:28;4.73;;;4.23;;
3293;SDS011;1659;51.470;6.770;2023-04-02T14:30:06;6.40;;;4.27;;
3293;SDS011;1659;51.470;6.770;2023-04-02T14:32:38;4.13;;;3.83;;
3293;SDS011;1659;51.470;6.770;2023-04-02T14:35:15;4.93;;;4.03;;
3293;SDS011;1659;51.470;6.770;2023-04-02T14:37:49;6.00;;;4.17;;
3293;SDS011;1659;51.470;6.770;2023-04-02T14:40:24;6.40;;;4.30;;
3293;SDS011;1659;51.470;6.770;2023-04-02T14:42:57;4.73;;;3.63;;
3293;SDS011;1659;51.470;6.770;2023-04-02T14:45:39;5.13;;;3.83;;
3293;SDS011;1659;51.470;6.770;2023-04-02T14:48:16;5.80;;;4.37;;
3293;SDS011;1659;51.470;6.770;2023-04-02T14:50:55;7.10;;;3.93;;
3293;SDS011;1659;51.470;6.770;2023-04-02T14:53:26;5.50;;;4.47;;
3293;SDS011;1659;51.470;6.770;2023-04-02T14:55:56;4.07;;;3.77;;
3293;SDS011;1659;51.470;6.770;2023-04-02T14:58:27;5.03;;;3.57;;
3293;SDS011;1659;51.470;6.770;2023-04-02T15:01:00;4.27;;;3.87;;
3293;SDS011;1659;51.470;6.770;2023-04-02T15:03:31;5.83;;;4.60;;
3293;SDS011;1659;51.470;6.770;2023-04-02T15:06:03;5.30;;;4.40;;
3293;SDS011;1659;51.470;6.770;2023-04-02T15:08:32;4.30;;;3.90;;
3293;SDS011;1659;51.470;6.770;2023-04-02T15:11:04;6.20;;;3.93;;
3293;SDS011;1659;51.470;6.770;2023-04-02T15:13:35;7.30;;;4.20;;
3293;SDS011;1659;51.470;6.770;2023-04-02T15:16:07;9.10;;;4.00;;
3293;SDS011;1659;51.470;6.770;2023-04-02T15:18:43;5.93;;;4.00;;
3293;SDS011;1659;51.470;6.770;2023-04-02T15:21:19;4.30;;;4.00;;
3293;SDS011;1659;51.470;6.770;2023-04-02T15:24:04;4.60;;;4.10;;
3293;SDS011;1659;51.470;6.770;2023-04-02T15:26:41;4.27;;;3.53;;
3293;SDS011;1659;51.470;6.770;2023-04-02T15:29:18;4.90;;;3.10;;
3293;SDS011;1659;51.470;6.770;2023-04-02T15:31:55;5.30;;;4.50;;
3293;SDS011;1659;51.470;6.770;2023-04-02T15:34:30;3.77;;;3.27;;
3293;SDS011;1659;51.470;6.770;2023-04-02T15:37:01;5.27;;;3.87;;
3293;SDS011;1659;51.470;6.770;2023-04-02T15:39:43;4.57;;;4.10;;
3293;SDS011;1659;51.470;6.770;2023-04-02T15:42:19;3.93;;;3.33;;
3293;SDS011;1659;51.470;6.770;2023-04-02T15:44:53;5.37;;;3.70;;
3293;SDS011;1659;51.470;6.770;2023-04-02T15:47:33;5.50;;;4.10;;
3293;SDS011;1659;51.470;6.770;2023-04-02T15:50:09;3.33;;;3.13;;
3293;SDS011;1659;51.470;6.770;2023-04-02T15:52:50;4.13;;;3.77;;
3293;SDS011;1659;51.470;6.770;2023-04-02T15:55:24;6.23;;;3.70;;
3293;SDS011;1659;51.470;6.770;2023-04-02T16:00:55;4.30;;;3.10;;
3293;SDS011;1659;51.470;6.770;2023-04-02T16:03:39;3.93;;;3.60;;
3293;SDS011;1659;51.470;6.770;2023-04-02T16:06:27;3.47;;;3.17;;
3293;SDS011;1659;51.470;6.770;2023-04-02T16:11:42;4.63;;;3.70;;
3293;SDS011;1659;51.470;6.770;2023-04-02T16:14:13;5.27;;;3.70;;
3293;SDS011;1659;51.470;6.770;2023-04-02T16:16:47;8.03;;;4.07;;
3293;SDS011;1659;51.470;6.770;2023-04-02T16:19:20;4.30;;;3.90;;
3293;SDS011;1659;51.470;6.770;2023-04-02T16:21:53;4.50;;;3.57;;
3293;SDS011;1659;51.470;6.770;2023-04-02T16:24:26;4.70;;;4.30;;
3293;SDS011;1659;51.470;6.770;2023-04-02T16:26:55;3.70;;;3.40;;
3293;SDS011;1659;51.470;6.770;2023-04-02T16:29:28;3.90;;;3.33;;
3293;SDS011;1659;51.470;6.770;2023-04-02T16:32:19;4.67;;;4.00;;
3293;SDS011;1659;51.470;6.770;2023-04-02T16:35:04;4.77;;;4.30;;